Time;durP1;ratioP1;P1;durP2;ratioP2;P2;SDS_P1;SDS_P2;PMS_P1;PMS_P2;Temp;Humidity;BMP_temperature;BMP_pressure;BME280_temperature;BME280_humidity;BME280_pressure;Samples;Min_cycle;Max_cycle;Signal;HPM_P1;HPM_P2
2022/02/02 00:01:57;;;;;;;58.22;11.95;;;7.40;93.00;;;;;;6142567;23;20340;-79
2022/02/02 00:04:26;;;;;;;56.22;11.32;;;7.30;92.90;;;;;;6119008;23;20099;-80
2022/02/02 00:09:30;;;;;;;44.15;9.75;;;7.30;92.90;;;;;;6142582;23;20080;-79
2022/02/02 00:12:19;;;;;;;38.78;8.93;;;7.30;92.80;;;;;;6139801;23;20017;-78
2022/02/02 00:15:07;;;;;;;40.22;7.75;;;7.20;92.80;;;;;;6120623;23;20053;-79
2022/02/02 00:17:44;;;;;;;47.85;8.25;;;7.20;92.80;;;;;;6164538;23;20104;-78
2022/02/02 00:20:20;;;;;;;34.83;6.88;;;7.20;92.80;;;;;;6167209;23;20024;-78
2022/02/02 00:22:48;;;;;;;28.20;5.40;;;7.20;92.80;;;;;;6166379;23;20017;-78
2022/02/02 00:25:20;;;;;;;43.13;6.15;;;7.20;92.90;;;;;;6140825;23;20471;-82
2022/02/02 00:27:50;;;;;;;31.07;6.83;;;7.20;92.90;;;;;;6141665;23;20024;-79
2022/02/02 00:30:19;;;;;;;28.65;5.55;;;7.20;93.00;;;;;;6141182;23;20017;-83
2022/02/02 00:35:32;;;;;;;25.33;4.88;;;7.10;93.00;;;;;;6143017;23;20021;-80
2022/02/02 00:37:58;;;;;;;26.85;6.18;;;7.10;93.10;;;;;;6141074;23;20017;-77
2022/02/02 00:40:23;;;;;;;17.20;3.70;;;7.10;93.10;;;;;;6139560;23;20017;-79
2022/02/02 00:42:51;;;;;;;22.77;4.43;;;7.10;93.00;;;;;;6139751;23;20016;-78
2022/02/02 00:45:17;;;;;;;23.27;4.13;;;7.10;93.00;;;;;;6165610;23;20017;-77
2022/02/02 00:47:47;;;;;;;28.40;5.03;;;7.00;92.90;;;;;;6140306;23;20095;-78
2022/02/02 00:50:12;;;;;;;23.92;4.43;;;7.00;92.90;;;;;;6165375;23;20059;-78
2022/02/02 00:52:38;;;;;;;30.17;6.40;;;7.00;92.90;;;;;;6164846;23;20021;-79
2022/02/02 00:55:04;;;;;;;31.00;6.20;;;7.00;92.90;;;;;;6165793;23;20025;-78
2022/02/02 00:57:30;;;;;;;35.38;5.90;;;7.00;92.90;;;;;;6165248;23;20387;-78
2022/02/02 00:59:57;;;;;;;25.67;6.68;;;6.90;92.90;;;;;;6139879;23;20013;-79
2022/02/02 01:02:22;;;;;;;45.22;7.93;;;6.90;92.90;;;;;;6115478;23;20028;-84
2022/02/02 01:04:51;;;;;;;34.17;6.93;;;6.90;92.90;;;;;;6139888;23;20021;-78
2022/02/02 01:07:30;;;;;;;29.38;7.03;;;6.90;92.90;;;;;;6140471;23;20068;-77
2022/02/02 01:13:09;;;;;;;46.33;7.85;;;6.90;92.90;;;;;;6101689;23;20025;-77
2022/02/02 01:18:46;;;;;;;48.05;7.72;;;6.80;92.80;;;;;;6006831;23;20455;-78
2022/02/02 01:21:27;;;;;;;45.72;7.93;;;6.80;92.80;;;;;;6113344;23;20065;-79
2022/02/02 01:29:21;;;;;;;36.80;7.40;;;6.90;92.80;;;;;;6134594;23;20065;-78
2022/02/02 01:31:47;;;;;;;44.63;8.10;;;6.80;92.70;;;;;;6134589;23;20021;-78
2022/02/02 01:34:13;;;;;;;38.15;7.38;;;6.80;92.70;;;;;;6110503;23;20025;-78
2022/02/02 01:36:40;;;;;;;42.10;9.05;;;6.80;92.70;;;;;;6110021;23;20018;-77
2022/02/02 01:39:08;;;;;;;39.92;7.38;;;6.80;92.70;;;;;;6109970;23;20460;-78
2022/02/02 01:41:35;;;;;;;38.60;7.15;;;6.80;92.70;;;;;;6110456;23;20181;-77
2022/02/02 01:44:10;;;;;;;40.75;9.20;;;6.80;92.60;;;;;;6135490;23;20020;-77
2022/02/02 01:46:37;;;;;;;36.58;6.65;;;6.80;92.60;;;;;;6087841;23;20018;-79
2022/02/02 01:52:16;;;;;;;42.45;6.55;;;6.80;92.50;;;;;;6113895;23;20025;-78
2022/02/02 01:57:39;;;;;;;36.90;7.68;;;6.80;92.50;;;;;;6134870;23;20460;-78
2022/02/02 02:00:04;;;;;;;46.13;8.88;;;6.80;92.50;;;;;;6114601;23;20072;-78
2022/02/02 02:02:29;;;;;;;43.15;7.75;;;6.80;92.40;;;;;;6110350;23;20017;-78
2022/02/02 02:04:55;;;;;;;50.63;8.30;;;6.90;92.50;;;;;;6110874;23;20111;-78
2022/02/02 02:07:24;;;;;;;55.53;9.23;;;6.80;92.40;;;;;;6110539;23;20017;-78
2022/02/02 02:09:50;;;;;;;36.05;8.40;;;6.80;92.40;;;;;;6110437;23;20322;-79
2022/02/02 02:12:15;;;;;;;50.97;9.48;;;6.80;92.40;;;;;;6132468;23;20024;-78
2022/02/02 02:14:55;;;;;;;47.90;9.88;;;6.90;92.50;;;;;;6164343;23;20021;-78
2022/02/02 02:17:23;;;;;;;46.40;9.38;;;6.90;92.50;;;;;;6189260;23;20017;-79
2022/02/02 02:19:50;;;;;;;55.72;10.07;;;6.90;92.50;;;;;;6163947;23;20341;-79
2022/02/02 02:22:25;;;;;;;62.28;12.80;;;6.90;92.50;;;;;;6138874;23;20021;-78
2022/02/02 02:24:52;;;;;;;54.80;9.40;;;6.90;92.60;;;;;;6164962;23;20025;-77
2022/02/02 02:27:20;;;;;;;50.03;9.48;;;6.90;92.50;;;;;;6140042;23;20032;-78
2022/02/02 02:33:25;;;;;;;47.35;8.57;;;6.90;92.50;;;;;;6098861;23;20081;-77
2022/02/02 02:57:03;;;;;;;62.53;12.57;;;6.90;92.40;;;;;;6144757;23;20025;-80
2022/02/02 03:32:39;;;;;;;44.40;8.05;;;7.00;92.50;;;;;;6144138;23;20083;-79
2022/02/02 03:51:27;;;;;;;34.78;7.07;;;7.00;92.20;;;;;;6143248;23;20025;-78
2022/02/02 03:56:34;;;;;;;25.50;6.43;;;7.00;92.10;;;;;;6166519;23;20028;-78
2022/02/02 04:02:07;;;;;;;33.22;5.40;;;7.00;92.10;;;;;;6142682;23;20021;-79
2022/02/02 04:04:55;;;;;;;33.80;6.10;;;7.00;92.40;;;;;;6122660;23;20024;-77
2022/02/02 04:07:24;;;;;;;35.38;6.55;;;7.00;92.00;;;;;;6120450;23;20021;-78
2022/02/02 04:09:51;;;;;;;39.58;6.68;;;7.00;91.90;;;;;;6165824;23;20052;-85
2022/02/02 04:12:37;;;;;;;49.25;6.15;;;7.00;91.90;;;;;;6134795;23;20033;-77
2022/02/02 04:56:00;;;;;;;31.92;7.30;;;6.80;92.00;;;;;;6114100;23;20347;-77
2022/02/02 05:06:41;;;;;;;33.42;6.30;;;6.80;91.80;;;;;;6109846;23;20456;-76
2022/02/02 05:09:38;;;;;;;24.30;5.30;;;6.80;91.70;;;;;;6134550;23;20434;-80
2022/02/02 05:20:28;;;;;;;38.58;6.47;;;6.80;91.50;;;;;;6140157;23;20017;-80
2022/02/02 05:53:02;;;;;;;25.10;5.53;;;6.80;91.50;;;;;;6140531;23;20083;-79
2022/02/02 05:55:34;;;;;;;31.52;6.60;;;6.80;91.50;;;;;;6115145;23;20017;-79
2022/02/02 05:57:59;;;;;;;19.25;4.60;;;6.80;91.50;;;;;;6140352;23;20018;-80
2022/02/02 06:00:26;;;;;;;29.55;5.95;;;6.80;91.40;;;;;;6163808;23;20017;-80
2022/02/02 06:02:54;;;;;;;32.75;5.55;;;6.80;91.50;;;;;;6117039;23;20017;-79
2022/02/02 06:05:20;;;;;;;30.17;5.80;;;6.80;91.40;;;;;;6192072;23;20021;-79
2022/02/02 06:07:51;;;;;;;24.02;4.70;;;6.80;91.40;;;;;;6141364;23;20112;-78
2022/02/02 06:10:18;;;;;;;31.55;6.57;;;6.80;91.40;;;;;;6117951;23;20024;-80
2022/02/02 06:12:44;;;;;;;26.58;5.32;;;6.80;91.40;;;;;;6111547;23;20021;-79
2022/02/02 06:15:13;;;;;;;27.83;5.05;;;6.80;91.40;;;;;;6112008;23;20024;-85
2022/02/02 06:17:42;;;;;;;27.15;5.80;;;6.80;91.30;;;;;;6112672;23;20013;-80
2022/02/02 06:20:09;;;;;;;25.23;5.43;;;6.70;91.30;;;;;;6112593;23;20017;-79
2022/02/02 06:22:35;;;;;;;30.88;5.07;;;6.80;91.30;;;;;;6135392;23;20026;-85
2022/02/02 06:25:21;;;;;;;27.90;5.35;;;6.80;91.40;;;;;;6111209;23;20018;-78
2022/02/02 06:27:51;;;;;;;27.95;5.57;;;6.80;91.30;;;;;;6112202;23;20029;-78
2022/02/02 06:30:20;;;;;;;28.08;4.75;;;6.70;91.30;;;;;;6121444;23;20024;-80
2022/02/02 06:32:52;;;;;;;25.60;5.00;;;6.80;91.30;;;;;;6112564;23;20344;-79
2022/02/02 06:35:19;;;;;;;30.67;4.30;;;6.80;91.40;;;;;;6112857;23;20049;-79
2022/02/02 06:37:45;;;;;;;24.20;4.45;;;6.80;91.30;;;;;;6111431;23;20388;-79
2022/02/02 06:40:11;;;;;;;31.10;5.30;;;6.70;91.30;;;;;;6135327;23;20013;-79
2022/02/02 06:42:37;;;;;;;21.92;4.22;;;6.70;91.30;;;;;;6111024;23;20017;-80
2022/02/02 06:45:04;;;;;;;28.02;5.32;;;6.70;91.30;;;;;;6088255;23;20021;-79
2022/02/02 06:47:30;;;;;;;23.63;5.88;;;6.80;91.40;;;;;;6160317;23;20341;-77
2022/02/02 06:50:08;;;;;;;32.35;5.63;;;6.70;91.40;;;;;;6111125;23;20028;-77
2022/02/02 06:52:46;;;;;;;25.55;4.93;;;6.70;91.40;;;;;;6090532;23;20025;-79
2022/02/02 06:55:25;;;;;;;29.13;5.65;;;6.70;91.30;;;;;;6111862;23;20020;-79
2022/02/02 06:58:15;;;;;;;22.55;4.18;;;6.70;91.40;;;;;;6114256;23;20036;-79
2022/02/02 07:03:43;;;;;;;27.05;5.43;;;6.70;91.40;;;;;;6113077;23;20033;-83
2022/02/02 07:06:33;;;;;;;30.75;5.70;;;6.70;91.40;;;;;;6136113;23;20087;-79
2022/02/02 07:15:14;;;;;;;32.30;6.38;;;6.70;91.50;;;;;;6142473;23;20075;-81
2022/02/02 07:20:09;;;;;;;35.00;6.22;;;6.70;91.50;;;;;;6144480;23;20017;-78
2022/02/02 07:25:46;;;;;;;28.00;5.53;;;6.70;91.50;;;;;;6145256;23;20096;-84
2022/02/02 07:28:20;;;;;;;23.65;6.82;;;6.80;91.60;;;;;;6146522;23;20060;-78
2022/02/02 07:33:21;;;;;;;38.28;6.45;;;6.70;91.70;;;;;;6141254;23;20021;-80
2022/02/02 07:36:34;;;;;;;26.80;6.10;;;6.70;91.70;;;;;;6142706;23;20021;-79
2022/02/02 07:38:45;;;;;;;31.83;7.03;;;6.70;91.80;;;;;;6133242;23;20052;-78
2022/02/02 07:41:13;;;;;;;34.13;5.60;;;6.80;91.80;;;;;;6141999;23;20313;-78
2022/02/02 07:43:42;;;;;;;39.38;5.97;;;6.80;91.90;;;;;;6140925;23;20025;-79
2022/02/02 07:46:08;;;;;;;31.75;7.43;;;6.80;91.90;;;;;;6141930;23;20017;-80
2022/02/02 07:48:38;;;;;;;30.38;6.00;;;6.80;92.00;;;;;;6140814;23;20021;-78
2022/02/02 07:51:05;;;;;;;28.65;6.03;;;6.80;92.00;;;;;;6141707;23;20028;-78
2022/02/02 07:53:38;;;;;;;33.97;6.78;;;6.80;92.00;;;;;;6164973;23;20021;-79
2022/02/02 07:56:13;;;;;;;35.50;5.47;;;6.80;92.00;;;;;;6142332;23;20021;-79
2022/02/02 07:58:42;;;;;;;34.20;6.93;;;6.90;92.10;;;;;;6118019;23;20059;-78
2022/02/02 08:01:08;;;;;;;36.60;6.45;;;6.90;92.10;;;;;;6141129;23;20043;-79
2022/02/02 08:03:39;;;;;;;41.30;6.22;;;6.90;92.10;;;;;;6140300;23;20055;-78
2022/02/02 08:06:07;;;;;;;42.65;7.32;;;6.90;92.10;;;;;;6142367;23;20024;-79
2022/02/02 08:08:35;;;;;;;40.80;7.10;;;6.90;92.10;;;;;;6141226;23;20394;-78
2022/02/02 08:11:05;;;;;;;33.55;5.90;;;6.90;92.10;;;;;;6093653;23;20474;-79
2022/02/02 08:13:43;;;;;;;34.63;6.47;;;6.90;92.10;;;;;;6142325;23;20017;-79
2022/02/02 08:16:12;;;;;;;40.05;6.68;;;6.90;92.10;;;;;;6167063;23;20013;-79
2022/02/02 08:18:41;;;;;;;46.30;6.50;;;6.90;92.10;;;;;;6166525;23;20021;-80
2022/02/02 08:21:10;;;;;;;33.28;5.70;;;7.00;92.00;;;;;;6140761;23;20428;-78
2022/02/02 08:23:36;;;;;;;29.60;6.43;;;7.00;92.00;;;;;;6141027;23;20021;-78
2022/02/02 08:26:05;;;;;;;27.35;5.97;;;7.00;91.90;;;;;;6165226;23;20459;-78
2022/02/02 08:28:31;;;;;;;38.33;6.90;;;7.00;91.90;;;;;;6116284;23;20021;-83
2022/02/02 08:30:56;;;;;;;28.80;4.85;;;7.00;91.80;;;;;;6141100;23;20028;-78
2022/02/02 08:33:28;;;;;;;31.45;5.55;;;7.00;91.80;;;;;;6116677;23;20021;-79
2022/02/02 08:35:55;;;;;;;23.88;4.80;;;7.10;91.80;;;;;;6141890;23;20060;-80
2022/02/02 08:41:02;;;;;;;28.17;5.28;;;7.10;91.70;;;;;;6140395;23;20087;-78
2022/02/02 08:46:03;;;;;;;22.77;4.05;;;7.10;91.60;;;;;;6165338;23;20024;-80
2022/02/02 08:48:29;;;;;;;29.85;4.63;;;7.20;91.60;;;;;;6165268;23;20009;-79
2022/02/02 08:51:02;;;;;;;28.55;4.63;;;7.20;91.60;;;;;;6139106;23;20162;-78
2022/02/02 08:53:35;;;;;;;26.20;5.10;;;7.20;91.50;;;;;;6140483;23;20459;-77
2022/02/02 08:58:40;;;;;;;31.23;5.47;;;7.20;91.50;;;;;;6141352;23;20380;-86
2022/02/02 09:01:13;;;;;;;26.58;6.82;;;7.30;91.50;;;;;;6115146;23;20013;-81
2022/02/02 09:06:23;;;;;;;25.60;4.72;;;7.40;91.30;;;;;;6140498;23;20109;-84
2022/02/02 09:08:51;;;;;;;31.50;4.95;;;7.60;91.40;;;;;;6134861;23;20132;-81
2022/02/02 09:25:28;;;;;;;33.13;5.78;;;7.60;91.30;;;;;;6027478;23;20390;-83
2022/02/02 09:35:53;;;;;;;37.35;7.78;;;7.70;91.40;;;;;;6135108;23;20078;-80
2022/02/02 09:38:20;;;;;;;39.75;7.10;;;7.60;91.40;;;;;;6159140;23;20344;-83
2022/02/02 09:43:47;;;;;;;39.28;6.28;;;7.70;91.40;;;;;;6131573;23;20017;-85
2022/02/02 09:46:16;;;;;;;39.03;6.18;;;7.70;91.40;;;;;;6108630;23;20024;-84
2022/02/02 09:48:50;;;;;;;41.78;7.22;;;7.60;91.30;;;;;;6134107;23;20055;-85
2022/02/02 09:51:25;;;;;;;26.05;5.85;;;7.70;91.30;;;;;;6111244;23;20466;-81
2022/02/02 09:53:59;;;;;;;27.92;6.38;;;7.70;91.30;;;;;;6111354;23;20021;-81
2022/02/02 09:57:45;;;;;;;27.67;5.45;;;7.70;91.30;;;;;;6135647;23;20017;-79
2022/02/02 10:02:17;;;;;;;36.72;5.63;;;7.80;91.20;;;;;;6136255;23;20091;-84
2022/02/02 10:15:29;;;;;;;27.08;6.18;;;8.20;90.70;;;;;;6137403;23;20021;-82
2022/02/02 10:18:03;;;;;;;33.50;5.28;;;8.30;90.60;;;;;;6138604;23;20017;-83
2022/02/02 10:20:29;;;;;;;23.85;5.07;;;8.30;90.60;;;;;;6138893;23;20021;-88
2022/02/02 10:22:57;;;;;;;29.75;5.32;;;8.40;90.60;;;;;;6134761;23;20071;-82
2022/02/02 10:25:30;;;;;;;34.72;4.90;;;8.50;90.60;;;;;;6139745;23;20095;-83
2022/02/02 10:28:31;;;;;;;33.33;5.25;;;8.60;90.60;;;;;;6111757;23;20013;-84
2022/02/02 10:31:04;;;;;;;26.17;6.15;;;8.60;90.30;;;;;;6019988;23;20018;-82
2022/02/02 10:33:31;;;;;;;35.42;6.32;;;8.70;90.30;;;;;;6160486;23;20039;-81
2022/02/02 10:36:08;;;;;;;21.48;5.00;;;8.80;90.20;;;;;;6136005;23;20518;-79
2022/02/02 10:38:49;;;;;;;21.00;4.00;;;8.90;90.10;;;;;;6115636;23;20035;-78
2022/02/02 10:41:33;;;;;;;33.95;5.10;;;9.00;89.90;;;;;;6137579;23;20097;-83
2022/02/02 10:44:32;;;;;;;29.50;4.57;;;9.10;89.60;;;;;;6122559;23;20052;-85
2022/02/02 10:47:30;;;;;;;19.48;3.92;;;9.20;89.20;;;;;;6142580;23;20025;-84
2022/02/02 10:50:49;;;;;;;20.75;5.18;;;9.40;89.10;;;;;;6119011;23;20095;-81
2022/02/02 11:07:12;;;;;;;28.42;4.85;;;10.30;87.40;;;;;;6139087;23;20076;-82
2022/02/02 11:09:38;;;;;;;25.15;4.72;;;10.60;87.40;;;;;;6136567;23;20017;-78
2022/02/02 11:12:04;;;;;;;22.75;4.03;;;10.80;86.40;;;;;;6135186;23;20374;-79
2022/02/02 11:14:58;;;;;;;29.75;5.00;;;10.90;85.40;;;;;;6111254;23;20048;-79
2022/02/02 11:17:51;;;;;;;19.08;4.00;;;11.10;84.70;;;;;;6164943;23;20024;-79
2022/02/02 11:20:17;;;;;;;19.42;3.78;;;11.40;84.40;;;;;;6159646;23;20013;-78
2022/02/02 11:22:47;;;;;;;27.30;4.55;;;11.60;84.30;;;;;;6111309;23;20044;-78
2022/02/02 11:25:13;;;;;;;24.00;5.03;;;11.80;83.80;;;;;;6135011;23;20067;-78
2022/02/02 11:27:43;;;;;;;25.35;5.88;;;11.90;83.40;;;;;;6135707;23;20440;-79
2022/02/02 11:30:24;;;;;;;26.73;4.75;;;11.90;82.90;;;;;;6160932;23;20023;-79
2022/02/02 11:33:20;;;;;;;28.52;5.38;;;12.00;82.40;;;;;;6138908;23;20017;-79
2022/02/02 11:35:46;;;;;;;25.60;4.10;;;12.00;81.80;;;;;;6111779;23;20044;-79
2022/02/02 11:38:24;;;;;;;29.90;4.85;;;12.00;82.60;;;;;;6160325;23;20013;-80
2022/02/02 11:43:56;;;;;;;31.00;5.68;;;12.00;81.30;;;;;;6160456;23;20448;-81
2022/02/02 11:46:42;;;;;;;22.80;3.95;;;11.90;81.60;;;;;;6135346;23;20021;-79
2022/02/02 11:49:17;;;;;;;25.20;5.43;;;11.90;80.70;;;;;;6159753;23;20035;-79
2022/02/02 11:51:47;;;;;;;28.38;4.80;;;11.90;81.00;;;;;;6135152;23;20017;-80
2022/02/02 11:54:20;;;;;;;19.08;3.88;;;11.90;81.10;;;;;;6160758;23;20025;-78
2022/02/02 11:57:03;;;;;;;29.00;5.07;;;11.90;81.00;;;;;;6136492;23;20017;-80
2022/02/02 11:59:53;;;;;;;35.65;5.18;;;12.00;80.30;;;;;;6135534;23;20027;-78
2022/02/02 12:06:22;;;;;;;24.65;5.25;;;12.00;80.10;;;;;;6117714;23;20380;-79
2022/02/02 12:08:34;;;;;;;26.42;5.13;;;12.00;80.10;;;;;;6140476;23;20021;-79
2022/02/02 12:11:25;;;;;;;31.13;5.53;;;12.30;79.70;;;;;;6164266;23;20017;-79
2022/02/02 12:49:44;;;;;;;18.70;2.80;;;15.30;70.00;;;;;;6136172;23;20021;-79
2022/02/02 13:03:09;;;;;;;19.58;3.63;;;17.70;64.20;;;;;;6041601;23;20023;-81
2022/02/02 13:05:37;;;;;;;19.33;3.38;;;18.30;62.90;;;;;;6089019;23;20120;-79
2022/02/02 13:08:02;;;;;;;14.68;3.67;;;18.80;61.60;;;;;;6110519;23;20440;-80
2022/02/02 13:10:31;;;;;;;15.60;2.92;;;19.20;60.70;;;;;;6134307;23;20024;-79
2022/02/02 13:13:12;;;;;;;10.77;2.30;;;19.30;59.50;;;;;;6159133;23;20020;-79
2022/02/02 13:15:57;;;;;;;13.63;2.80;;;19.60;58.30;;;;;;6160648;23;20444;-80
2022/02/02 13:18:32;;;;;;;13.95;3.15;;;19.30;58.90;;;;;;6137766;23;20040;-80
2022/02/02 13:26:08;;;;;;;11.68;2.75;;;20.20;56.70;;;;;;6134957;23;20028;-80
2022/02/02 13:28:57;;;;;;;12.63;2.95;;;20.40;56.40;;;;;;6135388;23;20017;-78
2022/02/02 13:31:28;;;;;;;17.10;3.42;;;20.60;55.20;;;;;;6136122;23;20021;-79
2022/02/02 13:34:11;;;;;;;14.73;2.90;;;20.60;55.60;;;;;;6135594;23;20020;-79
2022/02/02 13:37:03;;;;;;;18.13;3.88;;;20.60;54.30;;;;;;6110114;23;20021;-79
2022/02/02 13:53:06;;;;;;;24.33;4.80;;;18.10;57.70;;;;;;6134243;23;20095;-80
2022/02/02 13:55:47;;;;;;;26.33;4.03;;;18.40;57.20;;;;;;6137637;23;20017;-80
2022/02/02 14:01:15;;;;;;;17.48;4.10;;;19.20;55.80;;;;;;6135198;23;20056;-78
2022/02/02 14:06:35;;;;;;;27.00;5.90;;;20.10;53.60;;;;;;6133601;23;20033;-84
2022/02/02 14:25:49;;;;;;;19.60;5.82;;;20.80;52.50;;;;;;6133072;23;20054;-81
2022/02/02 14:33:26;;;;;;;23.63;6.53;;;19.80;52.50;;;;;;6139716;23;20025;-80
2022/02/02 14:35:58;;;;;;;27.63;7.38;;;19.60;52.70;;;;;;6162351;23;20444;-81
2022/02/02 14:38:33;;;;;;;30.05;6.57;;;19.50;52.90;;;;;;6162916;23;20052;-81
2022/02/02 14:41:15;;;;;;;20.98;5.78;;;19.20;53.30;;;;;;6137389;23;20020;-81
2022/02/02 14:43:58;;;;;;;26.95;6.95;;;18.90;54.00;;;;;;6164445;23;20067;-83
2022/02/02 14:46:52;;;;;;;31.63;6.18;;;18.70;54.50;;;;;;6139226;23;20021;-85
2022/02/02 14:49:29;;;;;;;26.50;6.03;;;18.50;54.30;;;;;;6138278;23;20017;-89
2022/02/02 14:54:47;;;;;;;26.48;5.85;;;18.30;55.90;;;;;;6141166;23;20100;-83
2022/02/02 15:30:21;;;;;;;24.95;5.72;;;15.40;60.60;;;;;;6137272;23;20027;-82
2022/02/02 15:32:16;;;;;;;22.83;6.10;;;15.20;59.70;;;;;;6147879;23;20017;-82
2022/02/02 15:34:46;;;;;;;30.27;6.55;;;14.90;59.70;;;;;;6135080;23;20332;-90
2022/02/02 15:39:51;;;;;;;27.17;6.05;;;14.40;60.20;;;;;;6141971;23;20035;-79
2022/02/02 15:42:29;;;;;;;26.40;7.38;;;14.10;61.00;;;;;;6113164;23;20017;-81
2022/02/02 15:58:19;;;;;;;22.80;5.97;;;13.10;64.10;;;;;;6139420;23;20025;-85
2022/02/02 16:03:39;;;;;;;66.63;18.98;;;13.00;67.60;;;;;;6138719;23;20028;-81
2022/02/02 16:06:17;;;;;;;44.83;13.52;;;13.00;67.30;;;;;;6184597;23;20033;-88
2022/02/02 16:08:44;;;;;;;23.08;6.22;;;12.90;67.20;;;;;;6138494;23;20340;-79
2022/02/02 16:13:52;;;;;;;29.27;5.55;;;12.70;66.70;;;;;;6158573;23;20056;-85
2022/02/02 16:18:55;;;;;;;25.70;7.38;;;12.30;66.70;;;;;;6134212;23;20021;-80
2022/02/02 16:31:33;;;;;;;34.53;10.18;;;11.90;68.20;;;;;;6124065;23;20020;-77
2022/02/02 16:44:16;;;;;;;26.58;9.27;;;10.80;71.90;;;;;;6078996;23;20097;-87
2022/02/02 16:46:42;;;;;;;34.95;9.82;;;10.70;72.40;;;;;;6098799;23;20539;-85
2022/02/02 16:49:08;;;;;;;28.67;10.00;;;10.60;72.80;;;;;;6099030;23;20022;-81
2022/02/02 16:51:38;;;;;;;36.78;9.32;;;10.50;73.20;;;;;;6104305;23;20488;-81
2022/02/02 17:32:19;;;;;;;33.88;12.13;;;9.20;77.30;;;;;;6040759;23;20090;-84
2022/02/02 17:34:53;;;;;;;32.92;12.63;;;9.10;77.50;;;;;;6042289;23;20042;-80
2022/02/02 17:40:09;;;;;;;27.77;11.85;;;9.00;78.10;;;;;;6137572;23;20383;-77
2022/02/02 17:45:35;;;;;;;31.90;9.52;;;8.80;79.20;;;;;;6137664;23;19916;-80
2022/02/02 18:12:27;;;;;;;35.10;11.07;;;8.20;81.00;;;;;;6165187;23;20060;-79
2022/02/02 18:20:14;;;;;;;42.80;12.88;;;8.10;81.50;;;;;;6139860;23;20021;-76
2022/02/02 18:22:47;;;;;;;32.60;11.52;;;8.00;81.60;;;;;;6140685;23;20020;-79
2022/02/02 18:25:25;;;;;;;49.30;13.07;;;8.00;81.90;;;;;;6162707;23;20023;-78
2022/02/02 18:33:16;;;;;;;41.35;14.80;;;7.90;82.40;;;;;;6140254;23;20021;-79
2022/02/02 18:35:51;;;;;;;43.05;14.77;;;7.80;82.50;;;;;;6186409;23;20092;-77
2022/02/02 18:48:59;;;;;;;37.67;15.27;;;7.70;83.10;;;;;;6164978;23;20021;-78
2022/02/02 18:51:53;;;;;;;48.13;14.48;;;7.60;83.10;;;;;;6160827;23;20031;-77
2022/02/02 18:57:02;;;;;;;37.40;12.48;;;7.60;83.30;;;;;;6137182;23;20482;-77
2022/02/02 19:31:02;;;;;;;38.00;12.23;;;7.50;84.00;;;;;;6141017;23;20028;-79
2022/02/02 19:40:09;;;;;;;29.77;9.70;;;7.90;87.30;;;;;;6139721;23;20021;-77
2022/02/02 20:10:01;;;;;;;26.65;10.00;;;7.60;85.20;;;;;;6137672;23;20031;-78
2022/02/02 20:12:31;;;;;;;30.90;11.73;;;7.60;85.20;;;;;;6110867;23;20111;-77
2022/02/02 20:14:57;;;;;;;27.88;9.45;;;7.60;85.20;;;;;;6135319;23;20313;-78
2022/02/02 20:17:24;;;;;;;33.53;10.98;;;7.60;85.30;;;;;;6185123;23;20028;-80
2022/02/02 20:19:55;;;;;;;31.20;10.45;;;7.60;85.40;;;;;;6109624;23;20452;-76
2022/02/02 20:22:23;;;;;;;33.42;10.90;;;7.60;85.50;;;;;;6110611;23;20032;-76
2022/02/02 20:24:56;;;;;;;35.53;11.23;;;7.60;85.60;;;;;;6134740;23;20017;-77
2022/02/02 20:27:22;;;;;;;25.30;11.10;;;7.70;86.00;;;;;;6183775;23;20028;-76
2022/02/02 20:29:48;;;;;;;28.98;10.77;;;7.70;86.10;;;;;;6134271;23;20013;-76
2022/02/02 20:32:14;;;;;;;32.55;10.77;;;7.60;87.00;;;;;;6134454;23;20052;-84
2022/02/02 20:34:39;;;;;;;33.47;12.23;;;7.70;86.50;;;;;;6158173;23;20021;-76
2022/02/02 20:37:05;;;;;;;35.08;12.23;;;7.70;86.60;;;;;;6159045;23;20025;-75
2022/02/02 20:39:47;;;;;;;33.30;11.40;;;7.70;86.80;;;;;;6133670;23;20448;-77
2022/02/02 20:42:15;;;;;;;31.60;12.48;;;7.70;87.00;;;;;;6137848;23;20452;-80
2022/02/02 21:00:18;;;;;;;36.40;13.40;;;7.70;87.20;;;;;;6136232;23;20127;-80
2022/02/02 21:06:17;;;;;;;37.70;15.55;;;7.80;88.90;;;;;;6135242;23;20025;-75
2022/02/02 21:14:02;;;;;;;40.40;16.80;;;7.80;89.70;;;;;;6134950;23;20032;-75
2022/02/02 21:16:30;;;;;;;49.00;16.63;;;7.80;89.90;;;;;;6132777;23;20024;-79
2022/02/02 21:18:59;;;;;;;47.90;16.25;;;7.80;90.10;;;;;;6133878;23;20013;-75
2022/02/02 21:21:36;;;;;;;41.38;16.13;;;7.80;90.20;;;;;;6133835;23;20017;-79
2022/02/02 21:24:51;;;;;;;43.30;16.52;;;7.80;90.30;;;;;;6136012;23;20510;-78
2022/02/02 21:29:24;;;;;;;38.47;15.90;;;7.80;90.50;;;;;;6185099;23;20032;-86
2022/02/02 21:31:50;;;;;;;44.13;15.10;;;7.70;90.50;;;;;;6135151;23;20028;-82
2022/02/02 21:34:18;;;;;;;34.70;14.63;;;7.80;90.60;;;;;;6159127;23;20016;-80
2022/02/02 21:36:44;;;;;;;48.53;15.75;;;8.00;91.10;;;;;;6135051;23;20025;-83
2022/02/02 21:39:19;;;;;;;43.75;15.82;;;8.00;91.30;;;;;;6110227;23;20019;-78
2022/02/02 21:41:46;;;;;;;32.60;14.07;;;8.00;90.80;;;;;;6135369;23;20350;-77
2022/02/02 21:44:13;;;;;;;38.08;14.82;;;8.10;90.90;;;;;;6184305;23;20091;-77
2022/02/02 21:46:39;;;;;;;39.92;14.80;;;8.00;91.00;;;;;;6133698;23;20340;-76
2022/02/02 21:49:08;;;;;;;39.28;13.73;;;8.00;91.00;;;;;;6133602;23;20028;-77
2022/02/02 21:51:38;;;;;;;40.13;15.52;;;8.10;91.20;;;;;;6133467;23;20433;-75
2022/02/02 21:54:04;;;;;;;46.60;14.98;;;8.00;91.20;;;;;;6158141;23;20021;-76
2022/02/02 21:56:30;;;;;;;36.58;14.52;;;8.00;91.20;;;;;;6132776;23;20027;-79
2022/02/02 21:58:56;;;;;;;46.42;16.60;;;8.00;91.30;;;;;;6133987;23;20383;-78
2022/02/02 22:01:23;;;;;;;40.63;16.70;;;8.00;91.60;;;;;;6133893;23;20051;-78
2022/02/02 22:03:52;;;;;;;39.83;17.98;;;8.00;91.30;;;;;;6133541;23;20017;-79
2022/02/02 22:06:25;;;;;;;46.15;18.33;;;8.00;91.40;;;;;;6157422;23;20024;-79
2022/02/02 22:08:51;;;;;;;49.92;19.00;;;8.00;91.40;;;;;;6158575;23;20016;-78
2022/02/02 22:11:16;;;;;;;49.35;21.17;;;8.00;91.30;;;;;;6133859;23;20119;-83
2022/02/02 22:13:47;;;;;;;45.53;19.45;;;8.00;91.40;;;;;;6133721;23;20052;-78
2022/02/02 22:16:20;;;;;;;53.22;20.85;;;8.00;91.50;;;;;;6160075;23;20470;-80
2022/02/02 22:18:47;;;;;;;57.92;22.75;;;8.10;91.50;;;;;;6110542;23;20017;-80
2022/02/02 22:21:13;;;;;;;57.28;23.80;;;8.10;91.50;;;;;;6159266;23;20021;-81
2022/02/02 22:23:41;;;;;;;55.63;25.73;;;8.10;91.50;;;;;;6158294;23;20017;-78
2022/02/02 22:26:07;;;;;;;47.95;24.15;;;8.10;91.60;;;;;;6135014;23;20017;-80
2022/02/02 22:28:33;;;;;;;51.78;25.33;;;8.10;91.60;;;;;;6133877;23;20144;-85
2022/02/02 22:30:58;;;;;;;53.90;25.48;;;8.10;91.70;;;;;;6133940;23;20021;-78
2022/02/02 22:33:24;;;;;;;54.08;25.20;;;8.10;91.70;;;;;;6109272;23;20083;-79
2022/02/02 22:35:50;;;;;;;55.38;26.70;;;8.10;91.70;;;;;;6133082;23;20083;-82
2022/02/02 22:38:16;;;;;;;55.25;25.55;;;8.10;91.70;;;;;;6133911;23;20071;-76
2022/02/02 22:40:42;;;;;;;44.00;21.02;;;8.10;91.80;;;;;;6181830;23;20021;-85
2022/02/02 22:43:08;;;;;;;64.40;27.35;;;8.60;92.90;;;;;;6112878;23;20091;-79
2022/02/02 22:45:35;;;;;;;54.97;25.02;;;8.70;92.10;;;;;;6116365;23;20530;-82
2022/02/02 22:48:01;;;;;;;53.72;27.13;;;8.70;91.60;;;;;;6140922;23;20040;-78
2022/02/02 22:50:26;;;;;;;66.68;26.67;;;8.70;91.60;;;;;;6141263;23;20388;-79
2022/02/02 22:52:56;;;;;;;70.75;31.35;;;8.60;91.60;;;;;;6165162;23;20140;-79
2022/02/02 22:55:22;;;;;;;66.63;29.98;;;8.60;91.70;;;;;;6142244;23;20328;-79
2022/02/02 22:57:48;;;;;;;62.90;29.40;;;8.50;91.70;;;;;;6164706;23;20017;-79
2022/02/02 23:00:25;;;;;;;63.83;28.70;;;8.50;91.70;;;;;;6165705;23;20027;-78
2022/02/02 23:02:56;;;;;;;63.83;28.67;;;8.50;91.80;;;;;;6141155;23;20071;-79
2022/02/02 23:05:27;;;;;;;65.32;30.42;;;8.50;91.90;;;;;;6166814;23;20017;-80
2022/02/02 23:07:53;;;;;;;66.65;30.83;;;8.50;91.90;;;;;;6166872;23;20029;-80
2022/02/02 23:10:20;;;;;;;73.22;32.17;;;8.50;91.90;;;;;;6165377;23;20024;-79
2022/02/02 23:12:47;;;;;;;74.70;33.28;;;8.50;91.90;;;;;;6140730;23;20479;-79
2022/02/02 23:15:15;;;;;;;64.70;31.42;;;8.50;92.00;;;;;;6164984;23;20084;-80
2022/02/02 23:17:41;;;;;;;78.05;34.72;;;8.50;92.00;;;;;;6141379;23;20017;-84
2022/02/02 23:20:07;;;;;;;75.95;32.45;;;8.50;92.10;;;;;;6165184;23;20013;-83
2022/02/02 23:22:34;;;;;;;74.28;32.20;;;8.50;92.20;;;;;;6140428;23;20017;-78
2022/02/02 23:25:04;;;;;;;75.95;33.83;;;8.50;92.20;;;;;;6140572;23;20013;-79
2022/02/02 23:27:31;;;;;;;64.88;33.65;;;8.50;92.30;;;;;;6166432;23;20067;-79
2022/02/02 23:29:57;;;;;;;71.65;32.78;;;8.50;92.30;;;;;;6164821;23;20082;-79
2022/02/02 23:32:25;;;;;;;68.13;32.83;;;8.50;92.20;;;;;;6165691;23;20021;-79
2022/02/02 23:34:50;;;;;;;69.70;31.73;;;8.50;92.20;;;;;;6165491;23;20017;-79
2022/02/02 23:37:16;;;;;;;70.35;32.10;;;8.50;92.30;;;;;;6165676;23;20035;-79